95OK weather

Barcus Field
Claremore, Oklahoma, United States

Public forecast

Using degrees Fahrenheit for public forecast. Weather courtesy of forecast.io.

METAR (pilot weather report)

Closest report is Claremore Regional Airport, 7.5 nm (13.8 km) ENE. Retrieved 2019/04/21 17:35 UTC (10 minutes ago):

KGCM 211735Z AUTO 15016G25KT 10SM CLR 24/12 A2993 RMK AO2

TAF (pilot weather forecast)

Closest forecast is Tulsa International Airport, 13.1 nm (24.3 km) WSW. Retrieved 2019/04/21 12:27 UTC (5 hours ago):

TAF KTUL 211124Z 2112/2212 17013KT P6SM SCT250 FM211500 17020G29KT P6SM BKN250 FM220100 18015G23KT P6SM BKN250 FM220900 19012KT P6SM BKN110